createdAt,value
2024-04-17T00:02:17.183Z,100.00
2024-04-17T00:04:44.069Z,100.00
2024-04-17T00:07:10.891Z,100.00
2024-04-17T00:09:37.612Z,100.00
2024-04-17T00:12:04.545Z,100.00
2024-04-17T00:14:33.746Z,100.00
2024-04-17T00:17:00.992Z,100.00
2024-04-17T00:19:27.869Z,100.00
2024-04-17T00:21:54.725Z,100.00
2024-04-17T00:24:21.462Z,100.00
2024-04-17T00:26:48.218Z,100.00
2024-04-17T00:29:14.975Z,100.00
2024-04-17T00:31:41.870Z,100.00
2024-04-17T00:34:08.696Z,100.00
2024-04-17T00:36:35.426Z,100.00
2024-04-17T00:39:02.213Z,100.00
2024-04-17T00:41:28.985Z,100.00
2024-04-17T00:43:55.832Z,100.00
2024-04-17T00:46:23.038Z,100.00
2024-04-17T00:48:50.005Z,100.00
2024-04-17T00:51:16.875Z,100.00
2024-04-17T00:53:43.902Z,100.00
2024-04-17T00:56:11.136Z,100.00
2024-04-17T00:58:38.131Z,100.00
2024-04-17T01:01:05.301Z,100.00
2024-04-17T01:03:32.106Z,100.00
2024-04-17T01:05:58.998Z,100.00
2024-04-17T01:08:25.802Z,100.00
2024-04-17T01:11:00.428Z,100.00
2024-04-17T01:13:27.568Z,100.00
2024-04-17T01:15:54.305Z,100.00
2024-04-17T01:18:21.580Z,100.00
2024-04-17T01:20:48.369Z,100.00
2024-04-17T01:23:15.154Z,100.00
2024-04-17T01:25:41.951Z,100.00
2024-04-17T01:28:08.977Z,100.00
2024-04-17T01:30:35.747Z,100.00
2024-04-17T01:33:02.711Z,100.00
2024-04-17T01:35:29.481Z,100.00
2024-04-17T01:37:56.264Z,100.00
2024-04-17T01:40:23.116Z,100.00
2024-04-17T01:42:49.830Z,100.00
2024-04-17T01:45:16.697Z,100.00
2024-04-17T01:47:43.594Z,100.00
2024-04-17T01:50:10.452Z,100.00
2024-04-17T01:52:37.194Z,100.00
2024-04-17T01:55:04.288Z,100.00
2024-04-17T01:57:31.061Z,100.00
2024-04-17T01:59:57.788Z,100.00
2024-04-17T02:02:24.590Z,100.00
2024-04-17T02:04:51.485Z,100.00
2024-04-17T02:07:18.286Z,100.00
2024-04-17T02:09:45.044Z,100.00
2024-04-17T02:12:11.814Z,100.00
2024-04-17T02:14:38.554Z,100.00
2024-04-17T02:17:05.567Z,100.00
2024-04-17T02:19:32.348Z,100.00
2024-04-17T02:21:59.078Z,100.00
2024-04-17T02:24:25.820Z,100.00
2024-04-17T02:26:52.564Z,100.00
2024-04-17T02:29:19.296Z,100.00
2024-04-17T02:31:46.272Z,100.00
2024-04-17T02:34:13.384Z,100.00
2024-04-17T02:36:40.097Z,100.00
2024-04-17T02:39:06.856Z,100.00
2024-04-17T02:41:33.584Z,100.00
2024-04-17T02:44:00.406Z,100.00
2024-04-17T02:46:27.264Z,100.00
2024-04-17T02:48:54.020Z,100.00
2024-04-17T02:51:20.761Z,100.00
2024-04-17T02:53:47.652Z,100.00
2024-04-17T02:56:14.482Z,100.00
2024-04-17T02:58:41.204Z,100.00
2024-04-17T03:01:17.527Z,100.00
2024-04-17T03:03:44.950Z,100.00
2024-04-17T03:06:11.722Z,100.00
2024-04-17T03:08:38.545Z,100.00
2024-04-17T03:11:05.710Z,100.00
2024-04-17T03:13:32.643Z,100.00
2024-04-17T03:16:03.567Z,100.00
2024-04-17T03:18:30.760Z,100.00
2024-04-17T03:21:00.605Z,100.00
2024-04-17T03:23:27.340Z,100.00
2024-04-17T03:25:57.951Z,100.00
2024-04-17T03:28:24.910Z,100.00
2024-04-17T03:30:51.674Z,100.00
2024-04-17T03:33:18.578Z,100.00
2024-04-17T03:36:00.765Z,100.00
2024-04-17T03:38:27.929Z,100.00
2024-04-17T03:40:56.226Z,100.00
2024-04-17T03:43:23.949Z,100.00
2024-04-17T03:45:50.891Z,100.00
2024-04-17T03:48:17.694Z,100.00
2024-04-17T03:50:44.596Z,100.00
2024-04-17T03:53:12.390Z,100.00
2024-04-17T03:55:39.203Z,100.00
2024-04-17T03:58:05.987Z,100.00
2024-04-17T04:00:32.746Z,100.00
2024-04-17T04:02:59.594Z,100.00
2024-04-17T04:05:26.443Z,100.00
2024-04-17T04:07:53.341Z,100.00
2024-04-17T04:10:20.221Z,100.00
2024-04-17T04:12:47.014Z,100.00
2024-04-17T04:15:13.906Z,100.00
2024-04-17T04:17:40.703Z,100.00
2024-04-17T04:20:07.992Z,100.00
2024-04-17T04:22:34.795Z,100.00
2024-04-17T04:25:01.587Z,100.00
2024-04-17T04:27:28.363Z,100.00
2024-04-17T04:29:55.129Z,100.00
2024-04-17T04:32:21.861Z,100.00
2024-04-17T04:34:48.657Z,100.00
2024-04-17T04:37:15.417Z,100.00
2024-04-17T04:39:42.124Z,100.00
2024-04-17T04:42:08.938Z,100.00
2024-04-17T04:44:35.696Z,100.00
2024-04-17T04:47:03.094Z,100.00
2024-04-17T04:49:30.444Z,100.00
2024-04-17T04:51:57.356Z,100.00
2024-04-17T04:54:24.133Z,100.00
2024-04-17T04:56:53.918Z,100.00
2024-04-17T04:59:20.724Z,100.00
2024-04-17T05:01:47.495Z,100.00
2024-04-17T05:04:14.457Z,100.00
2024-04-17T05:06:42.215Z,100.00
2024-04-17T05:09:09.021Z,100.00
2024-04-17T05:11:35.788Z,100.00
2024-04-17T05:14:02.648Z,100.00
2024-04-17T05:16:30.007Z,100.00
2024-04-17T05:18:56.841Z,100.00
2024-04-17T05:21:24.901Z,100.00
2024-04-17T05:23:51.775Z,100.00
2024-04-17T05:26:18.759Z,100.00
2024-04-17T05:28:45.563Z,100.00
2024-04-17T05:31:12.435Z,100.00
2024-04-17T05:33:39.419Z,100.00
2024-04-17T05:36:06.556Z,100.00
2024-04-17T05:38:33.309Z,100.00
2024-04-17T05:41:00.092Z,100.00
2024-04-17T05:43:26.928Z,100.00
2024-04-17T05:45:53.689Z,100.00
2024-04-17T05:48:20.747Z,100.00
2024-04-17T05:50:47.818Z,100.00
2024-04-17T05:53:14.538Z,100.00
2024-04-17T05:55:41.611Z,100.00
2024-04-17T05:58:08.477Z,100.00
2024-04-17T06:00:36.420Z,100.00
2024-04-17T06:03:04.164Z,100.00
2024-04-17T06:05:31.047Z,100.00
2024-04-17T06:07:57.896Z,100.00
2024-04-17T06:10:24.799Z,100.00
2024-04-17T06:12:51.602Z,100.00
2024-04-17T06:15:18.395Z,100.00
2024-04-17T06:17:45.184Z,100.00
2024-04-17T06:20:14.154Z,100.00
2024-04-17T06:22:42.163Z,100.00
2024-04-17T06:25:08.950Z,100.00
2024-04-17T06:27:35.970Z,100.00
2024-04-17T06:30:02.753Z,100.00
2024-04-17T06:32:29.722Z,100.00
2024-04-17T06:34:56.758Z,100.00
2024-04-17T06:37:23.522Z,100.00
2024-04-17T06:39:50.354Z,100.00
2024-04-17T06:42:17.103Z,100.00
2024-04-17T06:44:43.845Z,100.00
2024-04-17T06:47:10.808Z,100.00
2024-04-17T06:49:37.753Z,100.00
2024-04-17T06:52:04.636Z,100.00
2024-04-17T06:54:31.502Z,100.00
2024-04-17T06:56:58.260Z,100.00
2024-04-17T06:59:27.710Z,100.00
2024-04-17T07:01:56.247Z,100.00
2024-04-17T07:04:24.644Z,100.00
2024-04-17T07:06:51.583Z,100.00
2024-04-17T07:09:18.374Z,100.00
2024-04-17T07:11:45.473Z,100.00
2024-04-17T07:14:12.232Z,100.00
2024-04-17T07:16:39.648Z,100.00
2024-04-17T07:19:06.734Z,100.00
2024-04-17T07:21:33.561Z,100.00
2024-04-17T07:24:00.359Z,100.00
2024-04-17T07:26:27.160Z,100.00
2024-04-17T07:28:53.942Z,100.00
2024-04-17T07:31:20.714Z,100.00
2024-04-17T07:33:50.771Z,100.00
2024-04-17T07:36:17.582Z,100.00
2024-04-17T07:38:46.766Z,100.00
2024-04-17T07:41:16.383Z,100.00
2024-04-17T07:43:45.389Z,100.00
2024-04-17T07:46:12.228Z,100.00
2024-04-17T07:48:39.039Z,100.00
2024-04-17T07:51:06.085Z,100.00
2024-04-17T07:53:35.206Z,100.00
2024-04-17T07:56:02.723Z,100.00
2024-04-17T07:58:29.699Z,100.00
2024-04-17T08:00:56.578Z,100.00
2024-04-17T08:03:23.414Z,100.00
2024-04-17T08:05:50.195Z,100.00
2024-04-17T08:08:17.175Z,100.00
2024-04-17T08:10:43.963Z,100.00
2024-04-17T08:13:14.071Z,100.00
2024-04-17T08:15:44.681Z,100.00
2024-04-17T08:18:12.287Z,100.00
2024-04-17T08:20:39.352Z,100.00
2024-04-17T08:23:06.148Z,100.00
2024-04-17T08:25:33.070Z,100.00
2024-04-17T08:28:00.044Z,100.00
2024-04-17T08:30:27.769Z,100.00
2024-04-17T08:32:54.852Z,100.00
2024-04-17T08:35:21.622Z,100.00
2024-04-17T08:37:48.473Z,100.00
2024-04-17T08:40:15.315Z,100.00
2024-04-17T08:42:43.316Z,100.00
2024-04-17T08:45:12.692Z,100.00
2024-04-17T08:47:41.968Z,100.00
2024-04-17T08:50:09.294Z,100.00
2024-04-17T08:52:38.328Z,100.00
2024-04-17T08:55:06.892Z,100.00
2024-04-17T08:57:35.239Z,100.00
2024-04-17T09:00:02.019Z,100.00
2024-04-17T09:02:33.398Z,100.00
2024-04-17T09:05:01.196Z,100.00
2024-04-17T09:07:29.746Z,100.00
2024-04-17T09:09:56.831Z,100.00
2024-04-17T09:12:25.224Z,100.00
2024-04-17T09:14:56.911Z,100.00
2024-04-17T09:17:29.156Z,100.00
2024-04-17T09:19:57.508Z,100.00
2024-04-17T09:22:25.013Z,100.00
2024-04-17T09:24:51.979Z,100.00
2024-04-17T09:27:18.816Z,100.00
2024-04-17T09:29:45.632Z,100.00
2024-04-17T09:32:16.734Z,100.00
2024-04-17T09:34:44.446Z,100.00
2024-04-17T09:37:12.835Z,100.00
2024-04-17T09:39:40.180Z,100.00
2024-04-17T09:42:11.416Z,100.00
2024-04-17T09:44:40.271Z,100.00
2024-04-17T09:47:13.135Z,98.41
2024-04-17T09:49:46.579Z,99.83
2024-04-17T09:52:19.620Z,99.51
2024-04-17T09:54:47.113Z,98.44
2024-04-17T09:57:14.114Z,97.50
2024-04-17T09:59:43.641Z,96.08
2024-04-17T10:02:17.081Z,97.18
2024-04-17T10:04:44.847Z,97.04
2024-04-17T10:07:14.439Z,94.88
2024-04-17T10:09:41.785Z,96.72
2024-04-17T10:12:19.031Z,94.42
2024-04-17T10:14:45.774Z,95.08
2024-04-17T10:17:21.552Z,96.36
2024-04-17T10:19:57.623Z,94.67
2024-04-17T10:22:24.556Z,94.77
2024-04-17T10:24:51.620Z,93.04
2024-04-17T10:27:22.419Z,93.67
2024-04-17T10:29:49.368Z,93.64
2024-04-17T10:32:17.181Z,93.42
2024-04-17T10:34:48.211Z,90.75
2024-04-17T10:37:17.963Z,89.73
2024-04-17T10:39:46.258Z,83.97
2024-04-17T10:42:20.397Z,85.04
2024-04-17T10:44:51.955Z,82.72
2024-04-17T10:47:29.408Z,85.51
2024-04-17T10:50:03.796Z,86.28
2024-04-17T10:52:32.340Z,81.35
2024-04-17T10:55:01.453Z,83.14
2024-04-17T10:57:32.954Z,82.85
2024-04-17T10:59:59.972Z,81.24
2024-04-17T11:02:26.768Z,80.13
2024-04-17T11:04:53.579Z,82.74
2024-04-17T11:07:20.839Z,82.70
2024-04-17T11:09:48.275Z,83.33
2024-04-17T11:12:19.152Z,84.84
2024-04-17T11:14:47.065Z,85.42
2024-04-17T11:17:14.481Z,85.90
2024-04-17T11:19:42.707Z,86.29
2024-04-17T11:22:15.908Z,87.57
2024-04-17T11:24:50.330Z,87.32
2024-04-17T11:27:17.793Z,86.05
2024-04-17T11:29:49.708Z,87.69
2024-04-17T11:32:18.370Z,87.51
2024-04-17T11:34:45.719Z,86.99
2024-04-17T11:37:14.225Z,87.14
2024-04-17T11:39:44.815Z,87.11
2024-04-17T11:42:14.863Z,86.17
2024-04-17T11:44:43.686Z,86.15
2024-04-17T11:47:15.654Z,86.52
2024-04-17T11:49:43.871Z,87.30
2024-04-17T11:52:12.281Z,89.25
2024-04-17T11:54:39.187Z,90.48
2024-04-17T11:57:12.162Z,91.96
2024-04-17T11:59:41.202Z,91.77
2024-04-17T12:02:08.015Z,92.77
2024-04-17T12:04:35.166Z,92.90
2024-04-17T12:07:02.583Z,94.49
2024-04-17T12:09:31.305Z,93.88
2024-04-17T12:11:58.268Z,92.33
2024-04-17T12:14:25.090Z,90.42
2024-04-17T12:16:51.934Z,87.01
2024-04-17T12:19:18.690Z,85.85
2024-04-17T12:21:45.488Z,84.56
2024-04-17T12:24:20.192Z,84.37
2024-04-17T12:26:53.110Z,84.77
2024-04-17T12:29:20.756Z,82.80
2024-04-17T12:31:47.999Z,82.53
2024-04-17T12:34:15.135Z,82.87
2024-04-17T12:36:42.338Z,83.52
2024-04-17T12:39:10.070Z,82.05
2024-04-17T12:41:36.870Z,79.01
2024-04-17T12:44:03.802Z,80.87
2024-04-17T12:46:31.069Z,80.89
2024-04-17T12:48:57.868Z,83.19
2024-04-17T12:51:24.689Z,84.82
2024-04-17T12:53:51.423Z,85.30
2024-04-17T12:56:19.835Z,85.81
2024-04-17T12:58:47.227Z,85.44
2024-04-17T13:01:14.984Z,85.15
2024-04-17T13:03:42.173Z,86.39
2024-04-17T13:06:09.010Z,85.70
2024-04-17T13:08:37.578Z,80.74
2024-04-17T13:11:04.989Z,81.31
2024-04-17T13:13:31.771Z,84.66
2024-04-17T13:16:00.954Z,84.58
2024-04-17T13:18:34.190Z,83.97
2024-04-17T13:21:01.284Z,83.59
2024-04-17T13:23:29.123Z,83.63
2024-04-17T13:26:00.987Z,82.67
2024-04-17T13:28:33.791Z,84.51
2024-04-17T13:31:03.878Z,87.31
2024-04-17T13:33:32.163Z,87.96
2024-04-17T13:36:00.643Z,91.04
2024-04-17T13:38:27.676Z,92.21
2024-04-17T13:41:08.604Z,91.93
2024-04-17T13:43:36.332Z,88.95
2024-04-17T13:46:07.936Z,88.83
2024-04-17T13:48:35.527Z,88.92
2024-04-17T13:51:04.399Z,85.91
2024-04-17T13:53:31.859Z,84.41
2024-04-17T13:55:59.099Z,84.63
2024-04-17T13:58:29.615Z,83.12
2024-04-17T14:00:57.302Z,86.20
2024-04-17T14:03:25.382Z,90.69
2024-04-17T14:05:52.801Z,97.54
2024-04-17T14:08:21.782Z,100.00
2024-04-17T14:10:50.304Z,100.00
2024-04-17T14:13:17.655Z,100.00
2024-04-17T14:15:44.731Z,100.00
2024-04-17T14:18:11.745Z,100.00
2024-04-17T14:20:39.900Z,100.00
2024-04-17T14:23:07.413Z,100.00
2024-04-17T14:25:35.186Z,100.00
2024-04-17T14:28:03.677Z,100.00
2024-04-17T14:30:30.543Z,100.00
2024-04-17T14:32:57.329Z,100.00
2024-04-17T14:35:25.126Z,100.00
2024-04-17T14:37:51.950Z,100.00
2024-04-17T14:40:22.188Z,100.00
2024-04-17T14:42:49.109Z,100.00
2024-04-17T14:45:16.045Z,100.00
2024-04-17T14:47:43.049Z,100.00
2024-04-17T14:50:10.058Z,100.00
2024-04-17T14:52:38.319Z,100.00
2024-04-17T14:55:05.451Z,100.00
2024-04-17T14:57:32.249Z,100.00
2024-04-17T14:59:59.013Z,100.00
2024-04-17T15:02:25.714Z,100.00
2024-04-17T15:04:52.491Z,100.00
2024-04-17T15:07:19.242Z,100.00
2024-04-17T15:09:46.028Z,100.00
2024-04-17T15:12:12.990Z,100.00
2024-04-17T15:14:39.774Z,100.00
2024-04-17T15:17:06.616Z,100.00
2024-04-17T15:19:33.686Z,100.00
2024-04-17T15:22:00.828Z,100.00
2024-04-17T15:24:27.942Z,100.00
2024-04-17T15:26:55.914Z,100.00
2024-04-17T15:29:24.396Z,100.00
2024-04-17T15:31:51.473Z,100.00
2024-04-17T15:34:18.294Z,100.00
2024-04-17T15:36:46.577Z,100.00
2024-04-17T15:39:13.554Z,100.00
2024-04-17T15:41:40.415Z,100.00
2024-04-17T15:44:07.149Z,100.00
2024-04-17T15:46:34.738Z,100.00
2024-04-17T15:49:01.612Z,100.00
2024-04-17T15:51:28.625Z,100.00
2024-04-17T15:53:55.406Z,100.00
2024-04-17T15:56:23.736Z,100.00
2024-04-17T15:58:51.909Z,100.00
2024-04-17T16:01:20.370Z,100.00
2024-04-17T16:03:50.531Z,100.00
2024-04-17T16:06:20.847Z,100.00
2024-04-17T16:08:48.477Z,100.00
2024-04-17T16:11:15.308Z,100.00
2024-04-17T16:13:43.610Z,100.00
2024-04-17T16:16:11.262Z,100.00
2024-04-17T16:18:39.825Z,100.00
2024-04-17T16:21:26.066Z,100.00
2024-04-17T16:23:53.187Z,100.00
2024-04-17T16:26:22.691Z,100.00
2024-04-17T16:28:57.291Z,100.00
2024-04-17T16:31:27.776Z,100.00
2024-04-17T16:33:55.904Z,100.00
2024-04-17T16:36:22.740Z,100.00
2024-04-17T16:38:50.801Z,100.00
2024-04-17T16:41:19.540Z,100.00
2024-04-17T16:43:46.703Z,100.00
2024-04-17T16:46:15.425Z,100.00
2024-04-17T16:48:42.478Z,100.00
2024-04-17T16:51:10.150Z,100.00
2024-04-17T16:53:37.944Z,100.00
2024-04-17T16:56:05.237Z,100.00
2024-04-17T16:58:33.871Z,100.00
2024-04-17T17:01:05.230Z,100.00
2024-04-17T17:03:32.331Z,100.00
2024-04-17T17:06:00.270Z,100.00
2024-04-17T17:08:27.463Z,100.00
2024-04-17T17:10:55.342Z,100.00
2024-04-17T17:13:23.404Z,100.00
2024-04-17T17:16:03.390Z,100.00
2024-04-17T17:18:30.385Z,100.00
2024-04-17T17:20:58.534Z,100.00
2024-04-17T17:23:29.176Z,100.00
2024-04-17T17:25:56.624Z,100.00
2024-04-17T17:28:26.157Z,100.00
2024-04-17T17:31:01.598Z,100.00
2024-04-17T17:33:29.881Z,100.00
2024-04-17T17:36:04.991Z,100.00
2024-04-17T17:38:38.602Z,100.00
2024-04-17T17:41:10.879Z,100.00
2024-04-17T17:43:40.672Z,100.00
2024-04-17T17:46:12.751Z,100.00
2024-04-17T17:48:41.983Z,100.00
2024-04-17T17:51:09.118Z,100.00
2024-04-17T17:53:36.912Z,100.00
2024-04-17T17:56:06.627Z,100.00
2024-04-17T17:58:38.208Z,100.00
2024-04-17T18:01:05.021Z,100.00
2024-04-17T18:03:32.267Z,100.00
2024-04-17T18:06:00.985Z,100.00
2024-04-17T18:08:28.555Z,100.00
2024-04-17T18:10:55.470Z,100.00
2024-04-17T18:13:23.948Z,100.00
2024-04-17T18:16:08.799Z,100.00
2024-04-17T18:18:42.031Z,100.00
2024-04-17T18:21:09.829Z,100.00
2024-04-17T18:23:38.919Z,100.00
2024-04-17T18:26:20.142Z,100.00
2024-04-17T18:28:48.877Z,100.00
2024-04-17T18:31:16.399Z,100.00
2024-04-17T18:33:45.731Z,100.00
2024-04-17T18:36:14.664Z,100.00
2024-04-17T18:38:42.819Z,100.00
2024-04-17T18:41:19.869Z,100.00
2024-04-17T18:44:05.552Z,100.00
2024-04-17T18:46:34.287Z,100.00
2024-04-17T18:49:01.955Z,100.00
2024-04-17T18:51:29.856Z,100.00
2024-04-17T18:53:56.672Z,100.00
2024-04-17T18:56:26.918Z,100.00
2024-04-17T18:58:53.741Z,100.00
2024-04-17T19:01:21.135Z,100.00
2024-04-17T19:03:48.555Z,100.00
2024-04-17T19:06:19.894Z,100.00
2024-04-17T19:08:48.369Z,100.00
2024-04-17T19:11:16.368Z,100.00
2024-04-17T19:13:43.828Z,100.00
2024-04-17T19:16:21.592Z,100.00
2024-04-17T19:18:50.919Z,100.00
2024-04-17T19:21:18.988Z,100.00
2024-04-17T19:23:47.891Z,100.00
2024-04-17T19:26:15.172Z,100.00
2024-04-17T19:28:44.222Z,100.00
2024-04-17T19:31:11.249Z,100.00
2024-04-17T19:33:44.002Z,100.00
2024-04-17T19:36:17.704Z,100.00
2024-04-17T19:38:48.595Z,100.00
2024-04-17T19:41:15.697Z,100.00
2024-04-17T19:43:44.540Z,100.00
2024-04-17T19:46:13.969Z,100.00
2024-04-17T19:48:45.302Z,100.00
2024-04-17T19:51:14.066Z,100.00
2024-04-17T19:53:42.034Z,100.00
2024-04-17T19:56:17.886Z,100.00
2024-04-17T19:58:45.580Z,100.00
2024-04-17T20:01:14.453Z,100.00
2024-04-17T20:03:43.877Z,100.00
2024-04-17T20:06:13.716Z,100.00
2024-04-17T20:08:41.349Z,100.00
2024-04-17T20:11:12.776Z,100.00
2024-04-17T20:13:39.904Z,100.00
2024-04-17T20:16:08.075Z,100.00
2024-04-17T20:18:36.727Z,100.00
2024-04-17T20:21:06.132Z,100.00
2024-04-17T20:23:36.709Z,100.00
2024-04-17T20:26:04.408Z,100.00
2024-04-17T20:28:33.413Z,100.00
2024-04-17T20:31:05.220Z,100.00
2024-04-17T20:33:33.076Z,100.00
2024-04-17T20:36:05.534Z,100.00
2024-04-17T20:38:32.718Z,100.00
2024-04-17T20:41:02.359Z,100.00
2024-04-17T20:43:29.819Z,100.00
2024-04-17T20:45:56.945Z,100.00
2024-04-17T20:48:24.190Z,100.00
2024-04-17T20:50:51.059Z,100.00
2024-04-17T20:53:18.115Z,100.00
2024-04-17T20:55:56.516Z,100.00
2024-04-17T20:58:23.317Z,100.00
2024-04-17T21:01:16.410Z,100.00
2024-04-17T21:03:43.439Z,100.00
2024-04-17T21:06:12.527Z,100.00
2024-04-17T21:08:43.430Z,100.00
2024-04-17T21:11:13.693Z,100.00
2024-04-17T21:13:41.029Z,100.00
2024-04-17T21:16:07.922Z,100.00
2024-04-17T21:18:36.685Z,100.00
2024-04-17T21:21:04.091Z,100.00
2024-04-17T21:23:32.548Z,100.00
2024-04-17T21:25:59.430Z,100.00
2024-04-17T21:28:28.201Z,100.00
2024-04-17T21:30:57.736Z,100.00
2024-04-17T21:33:29.132Z,100.00
2024-04-17T21:35:56.268Z,100.00
2024-04-17T21:38:23.209Z,100.00
2024-04-17T21:40:59.233Z,100.00
2024-04-17T21:43:30.380Z,100.00
2024-04-17T21:46:07.524Z,100.00
2024-04-17T21:48:34.938Z,100.00
2024-04-17T21:51:03.808Z,100.00
2024-04-17T21:53:31.440Z,100.00
2024-04-17T21:56:05.179Z,100.00
2024-04-17T21:58:32.464Z,100.00
2024-04-17T22:01:01.930Z,100.00
2024-04-17T22:03:29.103Z,100.00
2024-04-17T22:05:57.867Z,100.00
2024-04-17T22:08:25.789Z,100.00
2024-04-17T22:10:52.998Z,100.00
2024-04-17T22:13:19.890Z,100.00
2024-04-17T22:15:46.683Z,100.00
2024-04-17T22:18:14.368Z,100.00
2024-04-17T22:20:41.927Z,100.00
2024-04-17T22:23:08.678Z,100.00
2024-04-17T22:25:35.474Z,100.00
2024-04-17T22:28:04.821Z,100.00
2024-04-17T22:30:31.747Z,100.00
2024-04-17T22:32:58.616Z,100.00
2024-04-17T22:35:25.513Z,100.00
2024-04-17T22:37:53.498Z,100.00
2024-04-17T22:40:20.251Z,100.00
2024-04-17T22:42:49.642Z,100.00
2024-04-17T22:45:17.122Z,100.00
2024-04-17T22:47:45.267Z,100.00
2024-04-17T22:50:12.992Z,100.00
2024-04-17T22:52:40.284Z,100.00
2024-04-17T22:55:07.167Z,100.00
2024-04-17T22:57:34.005Z,100.00
2024-04-17T23:00:00.850Z,100.00
2024-04-17T23:02:27.584Z,100.00
2024-04-17T23:04:54.410Z,100.00
2024-04-17T23:07:21.251Z,100.00
2024-04-17T23:09:48.006Z,100.00
2024-04-17T23:12:14.881Z,100.00
2024-04-17T23:14:41.602Z,100.00
2024-04-17T23:17:08.352Z,100.00
2024-04-17T23:19:35.088Z,100.00
2024-04-17T23:22:01.821Z,100.00
2024-04-17T23:24:28.563Z,100.00
2024-04-17T23:26:55.417Z,100.00
2024-04-17T23:29:22.165Z,100.00
2024-04-17T23:31:48.916Z,100.00
2024-04-17T23:34:15.648Z,100.00
2024-04-17T23:36:42.439Z,100.00
2024-04-17T23:39:09.338Z,100.00
2024-04-17T23:41:36.126Z,100.00
2024-04-17T23:44:03.063Z,100.00
2024-04-17T23:46:29.892Z,100.00
2024-04-17T23:48:56.679Z,100.00
2024-04-17T23:51:23.579Z,100.00
2024-04-17T23:53:50.695Z,100.00
2024-04-17T23:56:19.030Z,100.00
2024-04-17T23:58:47.959Z,100.00
